sensor_id;sensor_type;location;lat;lon;timestamp;pressure;altitude;pressure_sealevel;temperature;humidity
75039;BME280;63609;49.992;14.512;2023-04-01T00:03:34;96415.75;;;5.74;68.94
75039;BME280;63609;49.992;14.512;2023-04-01T00:06:03;96414.94;;;5.90;68.36
75039;BME280;63609;49.992;14.512;2023-04-01T00:08:33;96421.72;;;5.76;69.02
75039;BME280;63609;49.992;14.512;2023-04-01T00:11:00;96425.19;;;5.77;68.40
75039;BME280;63609;49.992;14.512;2023-04-01T00:13:27;96426.53;;;5.89;68.32
75039;BME280;63609;49.992;14.512;2023-04-01T00:15:55;96427.03;;;5.85;68.29
75039;BME280;63609;49.992;14.512;2023-04-01T00:18:32;96426.25;;;5.92;67.70
75039;BME280;63609;49.992;14.512;2023-04-01T00:20:59;96420.13;;;6.00;67.33
75039;BME280;63609;49.992;14.512;2023-04-01T00:23:27;96422.59;;;5.93;67.68
75039;BME280;63609;49.992;14.512;2023-04-01T00:25:54;96419.78;;;6.11;67.57
75039;BME280;63609;49.992;14.512;2023-04-01T00:28:21;96417.09;;;5.87;67.96
75039;BME280;63609;49.992;14.512;2023-04-01T00:30:48;96410.56;;;5.65;67.79
75039;BME280;63609;49.992;14.512;2023-04-01T00:33:16;96415.38;;;5.69;68.08
75039;BME280;63609;49.992;14.512;2023-04-01T00:35:45;96410.31;;;5.84;67.26
75039;BME280;63609;49.992;14.512;2023-04-01T00:38:12;96416.91;;;5.72;67.99
75039;BME280;63609;49.992;14.512;2023-04-01T00:40:44;96413.44;;;5.79;67.79
75039;BME280;63609;49.992;14.512;2023-04-01T00:43:17;96413.28;;;5.81;67.44
75039;BME280;63609;49.992;14.512;2023-04-01T00:45:48;96422.56;;;5.85;68.02
75039;BME280;63609;49.992;14.512;2023-04-01T00:48:19;96422.41;;;5.87;67.68
75039;BME280;63609;49.992;14.512;2023-04-01T00:50:52;96411.34;;;5.91;67.76
75039;BME280;63609;49.992;14.512;2023-04-01T00:53:21;96408.97;;;5.72;67.85
75039;BME280;63609;49.992;14.512;2023-04-01T00:55:54;96422.50;;;5.69;68.19
75039;BME280;63609;49.992;14.512;2023-04-01T00:58:24;96419.28;;;5.99;67.22
75039;BME280;63609;49.992;14.512;2023-04-01T01:00:53;96411.91;;;5.69;68.07
75039;BME280;63609;49.992;14.512;2023-04-01T01:03:22;96413.03;;;5.58;68.57
75039;BME280;63609;49.992;14.512;2023-04-01T01:11:29;96408.66;;;5.83;67.60
75039;BME280;63609;49.992;14.512;2023-04-01T01:20:12;96410.22;;;5.60;68.00
75039;BME280;63609;49.992;14.512;2023-04-01T01:25:33;96420.34;;;5.64;67.93
75039;BME280;63609;49.992;14.512;2023-04-01T01:28:35;96418.19;;;5.60;67.75
75039;BME280;63609;49.992;14.512;2023-04-01T01:31:20;96412.28;;;5.74;67.58
75039;BME280;63609;49.992;14.512;2023-04-01T01:36:32;96416.94;;;5.46;68.52
75039;BME280;63609;49.992;14.512;2023-04-01T01:39:07;96416.59;;;5.75;67.44
75039;BME280;63609;49.992;14.512;2023-04-01T01:41:37;96403.78;;;5.62;68.05
75039;BME280;63609;49.992;14.512;2023-04-01T01:44:08;96412.00;;;5.51;68.73
75039;BME280;63609;49.992;14.512;2023-04-01T01:46:38;96406.94;;;5.66;68.26
75039;BME280;63609;49.992;14.512;2023-04-01T01:49:07;96417.47;;;5.58;68.46
75039;BME280;63609;49.992;14.512;2023-04-01T01:51:37;96422.50;;;5.69;68.34
75039;BME280;63609;49.992;14.512;2023-04-01T01:54:06;96415.16;;;5.55;68.58
75039;BME280;63609;49.992;14.512;2023-04-01T01:56:34;96420.13;;;5.58;68.62
75039;BME280;63609;49.992;14.512;2023-04-01T01:59:07;96408.91;;;5.64;68.85
75039;BME280;63609;49.992;14.512;2023-04-01T02:01:39;96410.19;;;5.52;69.10
75039;BME280;63609;49.992;14.512;2023-04-01T02:04:13;96418.09;;;5.43;69.55
75039;BME280;63609;49.992;14.512;2023-04-01T02:06:46;96400.84;;;5.73;68.73
75039;BME280;63609;49.992;14.512;2023-04-01T02:09:15;96408.38;;;5.52;70.10
75039;BME280;63609;49.992;14.512;2023-04-01T02:11:52;96397.09;;;5.42;69.88
75039;BME280;63609;49.992;14.512;2023-04-01T02:14:25;96416.44;;;5.42;70.11
75039;BME280;63609;49.992;14.512;2023-04-01T02:17:10;96409.69;;;5.48;69.61
75039;BME280;63609;49.992;14.512;2023-04-01T02:19:44;96406.16;;;5.82;69.37
75039;BME280;63609;49.992;14.512;2023-04-01T02:22:18;96407.63;;;5.26;70.73
75039;BME280;63609;49.992;14.512;2023-04-01T02:24:49;96415.81;;;5.48;70.17
75039;BME280;63609;49.992;14.512;2023-04-01T02:27:17;96408.84;;;5.47;70.33
75039;BME280;63609;49.992;14.512;2023-04-01T02:29:44;96416.06;;;5.29;70.54
75039;BME280;63609;49.992;14.512;2023-04-01T02:32:19;96413.63;;;5.44;70.34
75039;BME280;63609;49.992;14.512;2023-04-01T02:34:47;96422.09;;;5.47;70.63
75039;BME280;63609;49.992;14.512;2023-04-01T02:37:16;96429.69;;;5.42;70.85
75039;BME280;63609;49.992;14.512;2023-04-01T02:39:44;96430.00;;;5.39;70.69
75039;BME280;63609;49.992;14.512;2023-04-01T02:42:13;96429.19;;;5.47;70.39
75039;BME280;63609;49.992;14.512;2023-04-01T02:44:41;96421.22;;;5.73;69.70
75039;BME280;63609;49.992;14.512;2023-04-01T02:47:09;96432.75;;;5.64;69.82
75039;BME280;63609;49.992;14.512;2023-04-01T02:49:36;96444.88;;;5.40;70.33
75039;BME280;63609;49.992;14.512;2023-04-01T02:52:04;96439.28;;;5.52;69.84
75039;BME280;63609;49.992;14.512;2023-04-01T02:54:32;96441.25;;;5.41;70.35
75039;BME280;63609;49.992;14.512;2023-04-01T02:56:59;96434.06;;;5.68;69.79
75039;BME280;63609;49.992;14.512;2023-04-01T02:59:27;96444.28;;;5.55;69.30
75039;BME280;63609;49.992;14.512;2023-04-01T03:01:55;96445.91;;;5.47;69.70
75039;BME280;63609;49.992;14.512;2023-04-01T03:04:23;96436.31;;;5.46;70.03
75039;BME280;63609;49.992;14.512;2023-04-01T03:06:50;96445.38;;;5.78;69.32
75039;BME280;63609;49.992;14.512;2023-04-01T03:09:17;96441.75;;;5.79;68.60
75039;BME280;63609;49.992;14.512;2023-04-01T03:11:48;96452.44;;;5.61;69.40
75039;BME280;63609;49.992;14.512;2023-04-01T03:14:16;96443.66;;;5.61;69.64
75039;BME280;63609;49.992;14.512;2023-04-01T03:16:43;96447.06;;;5.53;69.31
75039;BME280;63609;49.992;14.512;2023-04-01T03:19:11;96454.41;;;5.59;69.40
75039;BME280;63609;49.992;14.512;2023-04-01T03:21:38;96450.53;;;5.45;69.64
75039;BME280;63609;49.992;14.512;2023-04-01T03:24:12;96451.28;;;5.64;69.11
75039;BME280;63609;49.992;14.512;2023-04-01T03:26:39;96451.66;;;5.77;68.37
75039;BME280;63609;49.992;14.512;2023-04-01T03:29:06;96452.59;;;5.60;68.71
75039;BME280;63609;49.992;14.512;2023-04-01T03:31:37;96455.25;;;5.68;68.96
75039;BME280;63609;49.992;14.512;2023-04-01T03:34:04;96448.78;;;5.62;68.99
75039;BME280;63609;49.992;14.512;2023-04-01T03:36:32;96456.84;;;5.53;69.32
75039;BME280;63609;49.992;14.512;2023-04-01T03:38:59;96454.69;;;5.56;69.34
75039;BME280;63609;49.992;14.512;2023-04-01T03:41:37;96455.41;;;5.58;69.37
75039;BME280;63609;49.992;14.512;2023-04-01T03:44:05;96460.72;;;5.66;68.95
75039;BME280;63609;49.992;14.512;2023-04-01T03:46:33;96460.97;;;5.55;68.81
75039;BME280;63609;49.992;14.512;2023-04-01T03:49:00;96462.41;;;5.41;69.38
75039;BME280;63609;49.992;14.512;2023-04-01T03:51:30;96469.91;;;5.54;68.94
75039;BME280;63609;49.992;14.512;2023-04-01T03:53:57;96459.38;;;5.62;68.54
75039;BME280;63609;49.992;14.512;2023-04-01T03:56:24;96471.31;;;5.66;68.34
75039;BME280;63609;49.992;14.512;2023-04-01T03:58:52;96466.84;;;5.67;69.02
75039;BME280;63609;49.992;14.512;2023-04-01T04:01:21;96475.78;;;5.66;69.00
75039;BME280;63609;49.992;14.512;2023-04-01T04:03:52;96474.78;;;5.67;68.86
75039;BME280;63609;49.992;14.512;2023-04-01T04:06:22;96482.94;;;5.73;68.34
75039;BME280;63609;49.992;14.512;2023-04-01T04:08:51;96482.41;;;5.70;68.50
75039;BME280;63609;49.992;14.512;2023-04-01T04:11:20;96481.97;;;5.83;68.74
75039;BME280;63609;49.992;14.512;2023-04-01T04:13:50;96475.66;;;5.75;68.29
75039;BME280;63609;49.992;14.512;2023-04-01T04:16:19;96489.09;;;5.82;67.94
75039;BME280;63609;49.992;14.512;2023-04-01T04:18:53;96486.78;;;5.53;69.00
75039;BME280;63609;49.992;14.512;2023-04-01T04:21:20;96493.97;;;5.69;68.59
75039;BME280;63609;49.992;14.512;2023-04-01T04:23:47;96489.50;;;5.61;68.73
75039;BME280;63609;49.992;14.512;2023-04-01T04:26:17;96484.97;;;5.54;68.83
75039;BME280;63609;49.992;14.512;2023-04-01T04:28:57;96498.59;;;5.67;68.37
75039;BME280;63609;49.992;14.512;2023-04-01T04:31:25;96494.72;;;5.87;68.30
75039;BME280;63609;49.992;14.512;2023-04-01T04:33:54;96495.50;;;5.71;69.02
75039;BME280;63609;49.992;14.512;2023-04-01T04:36:22;96496.75;;;5.59;68.73
75039;BME280;63609;49.992;14.512;2023-04-01T04:38:51;96501.41;;;5.65;68.77
75039;BME280;63609;49.992;14.512;2023-04-01T04:41:19;96499.84;;;5.55;68.82
75039;BME280;63609;49.992;14.512;2023-04-01T04:43:52;96503.66;;;5.86;68.11
75039;BME280;63609;49.992;14.512;2023-04-01T04:46:22;96504.06;;;5.65;68.29
75039;BME280;63609;49.992;14.512;2023-04-01T04:48:54;96498.41;;;5.60;68.72
75039;BME280;63609;49.992;14.512;2023-04-01T04:51:22;96500.56;;;5.91;67.89
75039;BME280;63609;49.992;14.512;2023-04-01T04:53:51;96501.56;;;5.64;68.29
75039;BME280;63609;49.992;14.512;2023-04-01T04:56:27;96495.09;;;5.58;68.75
75039;BME280;63609;49.992;14.512;2023-04-01T04:59:07;96493.72;;;5.54;68.62
75039;BME280;63609;49.992;14.512;2023-04-01T05:01:55;96507.47;;;5.84;68.26
75039;BME280;63609;49.992;14.512;2023-04-01T05:04:24;96497.44;;;5.61;68.17
75039;BME280;63609;49.992;14.512;2023-04-01T05:06:53;96509.75;;;5.44;68.50
75039;BME280;63609;49.992;14.512;2023-04-01T05:09:23;96509.03;;;5.68;68.19
75039;BME280;63609;49.992;14.512;2023-04-01T05:11:50;96516.28;;;5.58;68.46
75039;BME280;63609;49.992;14.512;2023-04-01T05:14:19;96496.69;;;5.51;68.40
75039;BME280;63609;49.992;14.512;2023-04-01T05:16:55;96512.41;;;5.53;68.92
75039;BME280;63609;49.992;14.512;2023-04-01T05:19:25;96507.88;;;5.37;68.88
75039;BME280;63609;49.992;14.512;2023-04-01T05:21:57;96518.47;;;5.37;69.24
75039;BME280;63609;49.992;14.512;2023-04-01T05:24:26;96516.81;;;5.36;69.58
75039;BME280;63609;49.992;14.512;2023-04-01T05:26:54;96524.44;;;5.39;69.54
75039;BME280;63609;49.992;14.512;2023-04-01T05:29:24;96512.09;;;5.56;69.03
75039;BME280;63609;49.992;14.512;2023-04-01T05:31:58;96522.16;;;5.44;69.77
75039;BME280;63609;49.992;14.512;2023-04-01T05:34:25;96525.59;;;5.36;69.23
75039;BME280;63609;49.992;14.512;2023-04-01T05:36:52;96527.63;;;5.51;69.00
75039;BME280;63609;49.992;14.512;2023-04-01T05:39:20;96535.06;;;5.47;68.39
75039;BME280;63609;49.992;14.512;2023-04-01T05:41:54;96539.56;;;5.55;68.35
75039;BME280;63609;49.992;14.512;2023-04-01T05:44:21;96525.19;;;5.57;68.19
75039;BME280;63609;49.992;14.512;2023-04-01T05:47:08;96515.91;;;5.53;68.92
75039;BME280;63609;49.992;14.512;2023-04-01T05:49:43;96524.09;;;5.68;68.40
75039;BME280;63609;49.992;14.512;2023-04-01T05:52:12;96521.19;;;5.79;67.19
75039;BME280;63609;49.992;14.512;2023-04-01T05:54:39;96523.69;;;5.81;68.00
75039;BME280;63609;49.992;14.512;2023-04-01T05:57:07;96529.53;;;5.92;67.76
75039;BME280;63609;49.992;14.512;2023-04-01T05:59:35;96533.69;;;5.95;67.45
75039;BME280;63609;49.992;14.512;2023-04-01T06:02:03;96528.69;;;5.92;66.71
75039;BME280;63609;49.992;14.512;2023-04-01T06:04:37;96531.81;;;5.87;67.02
75039;BME280;63609;49.992;14.512;2023-04-01T06:07:11;96537.63;;;5.91;66.95
75039;BME280;63609;49.992;14.512;2023-04-01T06:09:44;96539.69;;;6.13;66.41
75039;BME280;63609;49.992;14.512;2023-04-01T06:26:07;96541.19;;;6.16;66.09
75039;BME280;63609;49.992;14.512;2023-04-01T06:37:22;96546.56;;;6.48;65.23
75039;BME280;63609;49.992;14.512;2023-04-01T06:40:24;96542.28;;;6.63;64.86
75039;BME280;63609;49.992;14.512;2023-04-01T06:52:16;96555.06;;;6.84;64.27
75039;BME280;63609;49.992;14.512;2023-04-01T06:55:38;96556.56;;;6.62;64.34
75039;BME280;63609;49.992;14.512;2023-04-01T06:58:34;96556.91;;;6.92;63.70
75039;BME280;63609;49.992;14.512;2023-04-01T07:01:06;96547.28;;;6.75;63.63
75039;BME280;63609;49.992;14.512;2023-04-01T07:03:44;96555.56;;;6.80;64.42
75039;BME280;63609;49.992;14.512;2023-04-01T07:06:42;96556.38;;;6.72;64.76
75039;BME280;63609;49.992;14.512;2023-04-01T07:09:11;96555.88;;;6.77;64.94
75039;BME280;63609;49.992;14.512;2023-04-01T07:12:32;96564.94;;;6.33;66.87
75039;BME280;63609;49.992;14.512;2023-04-01T07:15:34;96557.81;;;6.34;67.71
75039;BME280;63609;49.992;14.512;2023-04-01T07:18:21;96551.41;;;6.61;65.72
75039;BME280;63609;49.992;14.512;2023-04-01T07:20:57;96560.44;;;6.26;66.95
75039;BME280;63609;49.992;14.512;2023-04-01T07:23:33;96559.56;;;6.17;66.89
75039;BME280;63609;49.992;14.512;2023-04-01T07:26:22;96559.28;;;6.28;66.16
75039;BME280;63609;49.992;14.512;2023-04-01T07:29:00;96566.75;;;6.25;66.06
75039;BME280;63609;49.992;14.512;2023-04-01T07:31:49;96569.09;;;6.36;66.16
75039;BME280;63609;49.992;14.512;2023-04-01T07:34:25;96561.53;;;6.65;65.32
75039;BME280;63609;49.992;14.512;2023-04-01T07:36:56;96573.47;;;6.78;65.33
75039;BME280;63609;49.992;14.512;2023-04-01T21:37:56;96956.19;;;6.52;70.27
75039;BME280;63609;49.992;14.512;2023-04-01T21:40:52;96965.31;;;6.32;70.26
75039;BME280;63609;49.992;14.512;2023-04-01T21:43:31;96963.63;;;6.66;69.87
75039;BME280;63609;49.992;14.512;2023-04-01T22:02:45;96968.94;;;6.49;69.98
75039;BME280;63609;49.992;14.512;2023-04-01T22:05:21;96971.44;;;6.50;69.87
75039;BME280;63609;49.992;14.512;2023-04-01T22:08:00;96963.19;;;6.35;70.37
75039;BME280;63609;49.992;14.512;2023-04-01T22:13:27;96969.03;;;6.39;70.42
75039;BME280;63609;49.992;14.512;2023-04-01T22:18:55;96972.34;;;6.41;70.08
75039;BME280;63609;49.992;14.512;2023-04-01T22:21:43;96972.56;;;6.48;70.40
75039;BME280;63609;49.992;14.512;2023-04-01T22:24:43;96978.03;;;6.46;70.55
75039;BME280;63609;49.992;14.512;2023-04-01T22:35:48;96975.69;;;6.61;69.89
75039;BME280;63609;49.992;14.512;2023-04-01T22:41:11;96985.47;;;6.60;69.99
75039;BME280;63609;49.992;14.512;2023-04-01T22:43:45;96978.41;;;6.51;69.91
75039;BME280;63609;49.992;14.512;2023-04-01T22:49:31;96987.66;;;6.47;70.53
75039;BME280;63609;49.992;14.512;2023-04-01T22:52:38;96987.25;;;6.78;69.51
75039;BME280;63609;49.992;14.512;2023-04-01T22:55:15;96980.78;;;6.98;69.01
75039;BME280;63609;49.992;14.512;2023-04-01T22:57:56;96988.78;;;6.62;70.01
75039;BME280;63609;49.992;14.512;2023-04-01T23:03:30;96996.91;;;7.04;68.99
75039;BME280;63609;49.992;14.512;2023-04-01T23:06:03;96994.47;;;6.50;70.29
75039;BME280;63609;49.992;14.512;2023-04-01T23:16:32;96998.88;;;6.23;71.77
75039;BME280;63609;49.992;14.512;2023-04-01T23:22:42;97006.44;;;6.36;71.89
75039;BME280;63609;49.992;14.512;2023-04-01T23:30:47;97017.66;;;6.48;70.92
75039;BME280;63609;49.992;14.512;2023-04-01T23:38:37;97021.03;;;7.19;69.21
75039;BME280;63609;49.992;14.512;2023-04-01T23:41:05;97022.41;;;6.80;70.29
75039;BME280;63609;49.992;14.512;2023-04-01T23:43:38;97028.47;;;6.72;70.58
75039;BME280;63609;49.992;14.512;2023-04-01T23:46:08;97030.69;;;6.59;71.80
75039;BME280;63609;49.992;14.512;2023-04-01T23:48:38;97026.28;;;6.50;71.72
75039;BME280;63609;49.992;14.512;2023-04-01T23:51:18;97032.44;;;6.68;71.07
75039;BME280;63609;49.992;14.512;2023-04-01T23:53:47;97035.91;;;6.51;71.55
75039;BME280;63609;49.992;14.512;2023-04-01T23:56:17;97037.66;;;6.42;72.42
75039;BME280;63609;49.992;14.512;2023-04-01T23:58:49;97041.44;;;6.57;71.71
